Time;durP1;ratioP1;P1;durP2;ratioP2;P2;SDS_P1;SDS_P2;PMS_P1;PMS_P2;Temp;Humidity;BMP_temperature;BMP_pressure;BME280_temperature;BME280_humidity;BME280_pressure;Samples;Min_cycle;Max_cycle;Signal;HPM_P1;HPM_P2
2023/06/02 00:00:38;;;;;;;13.68;3.95;;;;;;;;;;5053653;28;20021;-36
2023/06/02 00:03:04;;;;;;;14.15;3.55;;;;;;;;;;5053041;28;20064;-34
2023/06/02 00:05:31;;;;;;;18.17;3.72;;;;;;;;;;5052983;28;20029;-40
2023/06/02 00:07:58;;;;;;;16.63;5.65;;;;;;;;;;5053414;28;20025;-35
2023/06/02 00:10:24;;;;;;;16.65;5.03;;;;;;;;;;5053454;28;20186;-35
2023/06/02 00:12:50;;;;;;;16.58;4.20;;;;;;;;;;5052186;28;20078;-38
2023/06/02 00:15:17;;;;;;;12.55;4.28;;;;;;;;;;5053021;28;20028;-37
2023/06/02 00:17:43;;;;;;;18.50;4.25;;;;;;;;;;5053243;28;20024;-35
2023/06/02 00:20:12;;;;;;;13.80;4.10;;;;;;;;;;5052828;28;20039;-37
2023/06/02 00:22:38;;;;;;;17.52;4.63;;;;;;;;;;5053052;28;20021;-38
2023/06/02 00:25:05;;;;;;;20.45;5.25;;;;;;;;;;5052906;28;20086;-38
2023/06/02 00:27:31;;;;;;;16.70;3.88;;;;;;;;;;5053010;28;20057;-38
2023/06/02 00:29:57;;;;;;;17.30;5.13;;;;;;;;;;5052587;28;20029;-39
2023/06/02 00:32:23;;;;;;;15.80;4.05;;;;;;;;;;5052882;28;20031;-39
2023/06/02 00:34:49;;;;;;;15.77;3.78;;;;;;;;;;5051870;28;20463;-35
2023/06/02 00:37:15;;;;;;;17.60;4.65;;;;;;;;;;5052772;28;20079;-37
2023/06/02 00:39:41;;;;;;;14.18;4.30;;;;;;;;;;5052641;28;20506;-33
2023/06/02 00:42:08;;;;;;;13.88;4.70;;;;;;;;;;5052315;28;20024;-33
2023/06/02 00:44:34;;;;;;;20.17;4.90;;;;;;;;;;5052227;28;20028;-37
2023/06/02 00:47:00;;;;;;;18.85;4.97;;;;;;;;;;5052653;28;20038;-39
2023/06/02 00:49:26;;;;;;;13.98;3.65;;;;;;;;;;5052427;28;20036;-37
2023/06/02 00:51:52;;;;;;;18.90;4.38;;;;;;;;;;5052480;28;20040;-40
2023/06/02 00:54:19;;;;;;;16.25;4.20;;;;;;;;;;5052089;28;20096;-38
2023/06/02 00:56:46;;;;;;;14.80;4.25;;;;;;;;;;5052588;28;20029;-37
2023/06/02 00:59:12;;;;;;;19.17;4.50;;;;;;;;;;5052326;28;20059;-36
2023/06/02 01:01:39;;;;;;;17.85;3.97;;;;;;;;;;5052588;28;20029;-41
2023/06/02 01:04:07;;;;;;;14.13;4.05;;;;;;;;;;5052586;28;20048;-40
2023/06/02 01:06:36;;;;;;;13.40;3.53;;;;;;;;;;5052364;28;20029;-39
2023/06/02 01:09:03;;;;;;;18.38;4.20;;;;;;;;;;5051877;28;20114;-36
2023/06/02 01:11:29;;;;;;;13.40;3.90;;;;;;;;;;5052196;28;20462;-39
2023/06/02 01:13:55;;;;;;;20.65;4.47;;;;;;;;;;5052253;28;20055;-36
2023/06/02 01:16:22;;;;;;;14.57;4.38;;;;;;;;;;5052557;28;20057;-37
2023/06/02 01:18:51;;;;;;;20.73;4.85;;;;;;;;;;5052514;28;20829;-37
2023/06/02 01:21:23;;;;;;;13.30;3.92;;;;;;;;;;5052009;28;20351;-39
2023/06/02 01:23:53;;;;;;;19.38;4.28;;;;;;;;;;5032259;28;20048;-35
2023/06/02 01:26:19;;;;;;;14.18;4.50;;;;;;;;;;5039705;28;20021;-37
2023/06/02 01:28:45;;;;;;;15.15;3.85;;;;;;;;;;5051993;28;20028;-38
2023/06/02 01:31:14;;;;;;;13.50;3.85;;;;;;;;;;5052298;28;20025;-35
2023/06/02 01:33:50;;;;;;;15.23;4.53;;;;;;;;;;5052015;28;20462;-37
2023/06/02 01:36:19;;;;;;;13.98;3.90;;;;;;;;;;5052170;28;20032;-38
2023/06/02 01:38:45;;;;;;;17.88;3.92;;;;;;;;;;5051939;28;20067;-37
2023/06/02 01:41:12;;;;;;;17.23;4.53;;;;;;;;;;5052159;28;20049;-37
2023/06/02 01:43:38;;;;;;;15.52;4.70;;;;;;;;;;5052017;28;20029;-35
2023/06/02 01:46:04;;;;;;;18.40;4.18;;;;;;;;;;5052194;28;20104;-35
2023/06/02 01:48:30;;;;;;;14.63;4.43;;;;;;;;;;5054157;28;20021;-39
2023/06/02 01:50:56;;;;;;;13.05;3.83;;;;;;;;;;5056047;28;20017;-36
2023/06/02 01:53:26;;;;;;;15.68;4.00;;;;;;;;;;5056062;28;20025;-34
2023/06/02 01:55:52;;;;;;;17.35;4.38;;;;;;;;;;5055835;28;20032;-37
2023/06/02 01:58:18;;;;;;;17.55;4.75;;;;;;;;;;5055915;28;20017;-38
2023/06/02 02:00:44;;;;;;;25.35;5.80;;;;;;;;;;5055830;28;20092;-37
2023/06/02 02:03:12;;;;;;;17.63;4.82;;;;;;;;;;5055924;28;20032;-36
2023/06/02 02:05:38;;;;;;;21.08;4.93;;;;;;;;;;5055816;28;20024;-38
2023/06/02 02:08:04;;;;;;;18.40;4.80;;;;;;;;;;5055752;28;20100;-36
2023/06/02 02:10:30;;;;;;;19.85;4.22;;;;;;;;;;5055455;28;20075;-36
2023/06/02 02:12:56;;;;;;;18.88;5.05;;;;;;;;;;5055635;28;20021;-38
2023/06/02 02:15:22;;;;;;;15.77;5.05;;;;;;;;;;5055545;28;20083;-34
2023/06/02 02:17:49;;;;;;;19.25;4.28;;;;;;;;;;5055566;28;20532;-36
2023/06/02 02:20:18;;;;;;;16.10;3.88;;;;;;;;;;5055392;28;20544;-35
2023/06/02 02:22:45;;;;;;;18.27;4.97;;;;;;;;;;5055188;28;20025;-32
2023/06/02 02:25:11;;;;;;;12.90;4.30;;;;;;;;;;5055229;28;20036;-40
2023/06/02 02:27:37;;;;;;;18.50;5.25;;;;;;;;;;5055350;28;20045;-36
2023/06/02 02:30:04;;;;;;;17.65;5.63;;;;;;;;;;5055054;28;20504;-39
2023/06/02 02:32:33;;;;;;;10.52;4.53;;;;;;;;;;5055020;28;20025;-39
2023/06/02 02:34:59;;;;;;;17.42;4.45;;;;;;;;;;5055031;28;20029;-35
2023/06/02 02:37:25;;;;;;;22.30;5.60;;;;;;;;;;5054872;28;20025;-38
2023/06/02 02:39:51;;;;;;;18.15;4.50;;;;;;;;;;5054339;28;20509;-38
2023/06/02 02:42:16;;;;;;;17.55;4.55;;;;;;;;;;5053632;28;20025;-37
2023/06/02 02:44:42;;;;;;;18.88;4.10;;;;;;;;;;5053077;28;20060;-36
2023/06/02 02:47:09;;;;;;;20.42;5.63;;;;;;;;;;5053504;28;20052;-37
2023/06/02 02:49:35;;;;;;;15.77;4.72;;;;;;;;;;5053613;28;20025;-38
2023/06/02 02:52:02;;;;;;;16.77;4.53;;;;;;;;;;5053617;28;20035;-36
2023/06/02 02:54:27;;;;;;;20.60;4.53;;;;;;;;;;5053809;28;20028;-36
2023/06/02 02:56:54;;;;;;;18.98;4.35;;;;;;;;;;5053916;28;20029;-38
2023/06/02 02:59:20;;;;;;;16.17;4.80;;;;;;;;;;5052883;28;20028;-42
2023/06/02 03:01:46;;;;;;;17.83;4.78;;;;;;;;;;5053763;28;20028;-36
2023/06/02 03:04:18;;;;;;;19.00;3.95;;;;;;;;;;5053601;28;20025;-39
2023/06/02 03:06:45;;;;;;;16.10;4.13;;;;;;;;;;5053508;28;20020;-34
2023/06/02 03:09:11;;;;;;;25.48;5.25;;;;;;;;;;5053365;28;20112;-40
2023/06/02 03:11:37;;;;;;;13.73;3.67;;;;;;;;;;5053209;28;20033;-37
2023/06/02 03:14:03;;;;;;;20.30;4.20;;;;;;;;;;5053325;28;20091;-36
2023/06/02 03:16:29;;;;;;;16.88;4.53;;;;;;;;;;5053585;28;20065;-38
2023/06/02 03:18:56;;;;;;;16.77;4.60;;;;;;;;;;5053456;28;20080;-39
2023/06/02 03:21:22;;;;;;;14.02;4.40;;;;;;;;;;5053074;28;20037;-38
2023/06/02 03:23:49;;;;;;;14.73;5.88;;;;;;;;;;5053270;28;20029;-34
2023/06/02 03:26:15;;;;;;;15.70;4.43;;;;;;;;;;5053181;28;20112;-38
2023/06/02 03:28:42;;;;;;;18.50;4.45;;;;;;;;;;5053164;28;20087;-37
2023/06/02 03:31:08;;;;;;;18.88;4.53;;;;;;;;;;5053087;28;20044;-34
2023/06/02 03:33:35;;;;;;;18.83;4.60;;;;;;;;;;5053104;28;20032;-36
2023/06/02 03:36:00;;;;;;;17.48;3.75;;;;;;;;;;5053085;28;20094;-38
2023/06/02 03:38:26;;;;;;;15.73;4.97;;;;;;;;;;5053091;28;20055;-33
2023/06/02 03:40:53;;;;;;;15.50;4.28;;;;;;;;;;5017357;28;1044826;-38
2023/06/02 03:43:18;;;;;;;16.85;4.03;;;;;;;;;;5053798;28;20036;-35
2023/06/02 03:45:45;;;;;;;15.50;4.53;;;;;;;;;;5053301;28;20478;-33
2023/06/02 03:48:11;;;;;;;12.90;4.55;;;;;;;;;;5052313;28;20059;-37
2023/06/02 03:50:38;;;;;;;14.65;4.05;;;;;;;;;;5053389;28;20489;-38
2023/06/02 03:53:05;;;;;;;13.63;4.53;;;;;;;;;;5053496;28;20054;-34
2023/06/02 03:55:31;;;;;;;20.52;4.32;;;;;;;;;;5052955;28;20401;-32
2023/06/02 03:57:57;;;;;;;13.60;3.80;;;;;;;;;;5053073;28;20032;-40
2023/06/02 04:00:23;;;;;;;15.63;3.88;;;;;;;;;;5053121;28;20029;-34
2023/06/02 04:02:49;;;;;;;18.20;4.88;;;;;;;;;;5052884;28;20405;-40
2023/06/02 04:05:15;;;;;;;15.32;4.78;;;;;;;;;;5053447;28;20039;-38
2023/06/02 04:07:41;;;;;;;16.63;4.43;;;;;;;;;;5052604;28;20021;-39
2023/06/02 04:10:07;;;;;;;15.40;4.35;;;;;;;;;;5050568;28;20089;-36
2023/06/02 04:12:33;;;;;;;16.27;3.95;;;;;;;;;;5053341;28;20497;-39
2023/06/02 04:15:00;;;;;;;13.10;4.22;;;;;;;;;;5053303;28;20025;-34
2023/06/02 04:17:26;;;;;;;16.10;4.53;;;;;;;;;;5051834;28;20020;-36
2023/06/02 04:19:52;;;;;;;15.52;4.50;;;;;;;;;;5052879;28;20028;-38
2023/06/02 04:22:19;;;;;;;10.13;3.55;;;;;;;;;;5052887;28;20029;-40
2023/06/02 04:24:45;;;;;;;16.60;4.07;;;;;;;;;;5053334;28;20032;-32
2023/06/02 04:27:11;;;;;;;13.10;4.15;;;;;;;;;;5050808;28;20478;-33
2023/06/02 04:29:37;;;;;;;11.77;3.60;;;;;;;;;;5051349;28;20025;-34
2023/06/02 04:32:04;;;;;;;11.77;3.70;;;;;;;;;;5048498;28;20019;-39
2023/06/02 04:34:31;;;;;;;18.10;4.30;;;;;;;;;;5051709;28;20025;-38
2023/06/02 04:36:57;;;;;;;12.35;3.67;;;;;;;;;;5050485;28;20029;-38
2023/06/02 04:39:23;;;;;;;9.35;3.13;;;;;;;;;;5050996;28;20563;-34
2023/06/02 04:41:49;;;;;;;12.52;3.97;;;;;;;;;;5052722;28;20033;-37
2023/06/02 04:44:18;;;;;;;14.45;3.55;;;;;;;;;;5051583;28;20067;-37
2023/06/02 04:46:44;;;;;;;10.90;3.15;;;;;;;;;;5051332;28;20033;-35
2023/06/02 04:49:10;;;;;;;9.02;3.40;;;;;;;;;;5052314;28;20492;-33
2023/06/02 04:51:39;;;;;;;11.38;3.70;;;;;;;;;;5052593;28;20055;-36
2023/06/02 04:54:06;;;;;;;12.13;3.88;;;;;;;;;;5052310;28;20056;-36
2023/06/02 04:56:33;;;;;;;11.10;3.80;;;;;;;;;;5052225;28;20539;-35
2023/06/02 04:58:59;;;;;;;11.85;3.47;;;;;;;;;;5052264;28;20021;-37
2023/06/02 05:01:28;;;;;;;17.90;4.18;;;;;;;;;;5051904;28;20055;-39
2023/06/02 05:03:54;;;;;;;15.25;3.70;;;;;;;;;;5052483;28;20028;-35
2023/06/02 05:06:20;;;;;;;10.20;3.35;;;;;;;;;;5052310;28;20017;-38
2023/06/02 05:08:46;;;;;;;12.75;3.45;;;;;;;;;;5052370;28;20033;-37
2023/06/02 05:11:12;;;;;;;11.90;3.67;;;;;;;;;;5052549;28;20580;-40
2023/06/02 05:13:38;;;;;;;9.40;3.28;;;;;;;;;;5052352;28;20032;-38
2023/06/02 05:16:04;;;;;;;8.00;3.40;;;;;;;;;;5051055;28;20017;-41
2023/06/02 05:18:30;;;;;;;12.25;3.30;;;;;;;;;;5052186;28;20476;-41
2023/06/02 05:20:56;;;;;;;15.80;3.85;;;;;;;;;;5052182;28;20471;-38
2023/06/02 05:23:22;;;;;;;12.75;3.10;;;;;;;;;;5052123;28;20040;-37
2023/06/02 05:25:52;;;;;;;9.55;3.50;;;;;;;;;;5051939;28;20025;-40
2023/06/02 05:28:18;;;;;;;9.57;3.10;;;;;;;;;;5051967;28;20492;-41
2023/06/02 05:30:44;;;;;;;15.80;4.68;;;;;;;;;;5052074;28;20021;-37
2023/06/02 05:33:10;;;;;;;11.45;3.45;;;;;;;;;;5051899;28;20030;-43
2023/06/02 05:35:36;;;;;;;11.63;3.50;;;;;;;;;;5051760;28;20025;-38
2023/06/02 05:38:02;;;;;;;10.07;3.10;;;;;;;;;;5051766;28;20029;-36
2023/06/02 05:40:28;;;;;;;14.10;3.92;;;;;;;;;;5051772;28;20053;-28
2023/06/02 05:42:54;;;;;;;12.43;3.78;;;;;;;;;;5051725;28;20521;-30
2023/06/02 05:45:20;;;;;;;12.68;3.88;;;;;;;;;;5051861;28;20029;-27
2023/06/02 05:47:47;;;;;;;12.95;3.00;;;;;;;;;;5051861;28;20041;-27
2023/06/02 05:50:13;;;;;;;9.65;3.20;;;;;;;;;;5051748;28;20061;-28
2023/06/02 05:52:39;;;;;;;8.25;3.13;;;;;;;;;;5051824;28;20442;-29
2023/06/02 05:55:05;;;;;;;14.98;3.20;;;;;;;;;;5051580;28;20025;-28
2023/06/02 05:57:31;;;;;;;13.07;3.45;;;;;;;;;;5051731;28;20028;-34
2023/06/02 05:59:57;;;;;;;10.52;3.20;;;;;;;;;;5050625;28;20083;-34
2023/06/02 06:02:23;;;;;;;9.10;3.17;;;;;;;;;;5051513;28;20048;-31
2023/06/02 06:04:49;;;;;;;12.18;3.58;;;;;;;;;;5051287;28;20032;-32
2023/06/02 06:07:15;;;;;;;11.48;4.15;;;;;;;;;;5051306;28;20033;-31
2023/06/02 06:09:41;;;;;;;10.57;3.33;;;;;;;;;;5051114;28;20106;-31
2023/06/02 06:12:07;;;;;;;12.13;3.33;;;;;;;;;;5051175;28;20031;-33
2023/06/02 06:14:33;;;;;;;9.10;3.78;;;;;;;;;;5051301;28;20108;-32
2023/06/02 06:16:59;;;;;;;13.30;3.55;;;;;;;;;;5051269;28;20128;-35
2023/06/02 06:19:25;;;;;;;9.00;3.53;;;;;;;;;;5051146;28;20116;-30
2023/06/02 06:21:51;;;;;;;14.20;3.95;;;;;;;;;;5051000;28;20036;-31
2023/06/02 06:24:17;;;;;;;13.43;3.85;;;;;;;;;;5049743;28;20060;-31
2023/06/02 06:26:43;;;;;;;9.68;3.63;;;;;;;;;;5050992;28;20036;-32
2023/06/02 06:29:09;;;;;;;12.05;3.67;;;;;;;;;;5050856;28;20037;-31
2023/06/02 06:31:35;;;;;;;7.50;3.45;;;;;;;;;;5050949;28;20135;-35
2023/06/02 06:34:02;;;;;;;14.13;3.70;;;;;;;;;;5053371;28;20047;-36
2023/06/02 06:36:28;;;;;;;13.43;4.00;;;;;;;;;;5054404;28;20023;-30
2023/06/02 06:38:54;;;;;;;11.85;4.70;;;;;;;;;;5054569;28;20505;-31
2023/06/02 06:41:21;;;;;;;9.77;3.30;;;;;;;;;;5053132;28;20559;-31
2023/06/02 06:43:47;;;;;;;12.27;4.03;;;;;;;;;;5054511;28;20108;-32
2023/06/02 06:46:15;;;;;;;14.88;4.30;;;;;;;;;;5054369;28;20103;-32
2023/06/02 06:48:41;;;;;;;8.93;3.92;;;;;;;;;;5054337;28;20515;-31
2023/06/02 06:51:07;;;;;;;7.60;3.90;;;;;;;;;;5054883;28;20025;-37
2023/06/02 06:53:33;;;;;;;13.35;3.97;;;;;;;;;;5055007;28;20056;-39
2023/06/02 06:56:00;;;;;;;10.15;3.60;;;;;;;;;;5054691;28;20067;-40
2023/06/02 06:58:26;;;;;;;10.95;3.50;;;;;;;;;;5054756;28;20036;-39
2023/06/02 07:00:52;;;;;;;9.80;3.13;;;;;;;;;;5054624;28;20470;-40
2023/06/02 07:03:18;;;;;;;13.65;4.13;;;;;;;;;;5054601;28;20514;-38
2023/06/02 07:05:44;;;;;;;8.88;3.30;;;;;;;;;;5054656;28;20381;-40
2023/06/02 07:08:10;;;;;;;13.77;4.63;;;;;;;;;;5054417;28;20017;-35
2023/06/02 07:10:37;;;;;;;8.27;3.45;;;;;;;;;;5054411;28;20031;-39
2023/06/02 07:13:03;;;;;;;7.63;2.90;;;;;;;;;;5054245;28;20018;-37
2023/06/02 07:15:29;;;;;;;6.88;3.85;;;;;;;;;;5054397;28;20070;-35
2023/06/02 07:17:55;;;;;;;8.57;3.22;;;;;;;;;;5054259;28;20021;-39
2023/06/02 07:20:21;;;;;;;7.47;3.45;;;;;;;;;;5054389;28;20039;-36
2023/06/02 07:22:47;;;;;;;10.23;3.25;;;;;;;;;;5054301;28;20025;-37
2023/06/02 07:25:13;;;;;;;6.75;3.72;;;;;;;;;;5054131;28;20040;-38
2023/06/02 07:27:39;;;;;;;13.40;3.35;;;;;;;;;;5052883;28;20125;-38
2023/06/02 07:30:05;;;;;;;9.50;3.47;;;;;;;;;;5053929;28;20490;-37
2023/06/02 07:32:31;;;;;;;12.40;4.10;;;;;;;;;;5053953;28;20052;-38
2023/06/02 07:34:57;;;;;;;9.27;3.72;;;;;;;;;;5053982;28;20074;-37
2023/06/02 07:37:23;;;;;;;9.10;3.83;;;;;;;;;;5053869;28;20017;-33
2023/06/02 07:39:49;;;;;;;7.35;3.90;;;;;;;;;;5053830;28;20056;-38
2023/06/02 07:42:15;;;;;;;13.27;4.15;;;;;;;;;;5052724;28;20462;-36
2023/06/02 07:44:41;;;;;;;9.45;4.30;;;;;;;;;;5052738;28;20481;-39
2023/06/02 07:47:07;;;;;;;13.48;3.83;;;;;;;;;;5053756;28;20025;-37
2023/06/02 07:49:37;;;;;;;9.82;3.92;;;;;;;;;;5053533;28;20032;-38
2023/06/02 07:52:03;;;;;;;11.77;4.13;;;;;;;;;;5053779;28;20027;-39
2023/06/02 07:54:29;;;;;;;11.40;3.42;;;;;;;;;;5053615;28;20111;-35
2023/06/02 07:56:55;;;;;;;8.77;3.80;;;;;;;;;;5053644;28;20108;-33
2023/06/02 07:59:23;;;;;;;9.57;4.38;;;;;;;;;;5053503;28;20568;-35
2023/06/02 08:01:49;;;;;;;11.93;4.10;;;;;;;;;;5053308;28;20128;-36
2023/06/02 08:04:14;;;;;;;8.30;4.13;;;;;;;;;;5053457;28;20521;-39
2023/06/02 08:06:40;;;;;;;10.73;3.65;;;;;;;;;;5053460;28;20107;-37
2023/06/02 08:09:06;;;;;;;9.85;4.00;;;;;;;;;;5053261;28;20029;-37
2023/06/02 08:11:32;;;;;;;6.70;3.30;;;;;;;;;;5053364;28;20029;-35
2023/06/02 08:13:58;;;;;;;8.20;4.00;;;;;;;;;;5053296;28;20032;-38
2023/06/02 08:16:24;;;;;;;12.13;3.92;;;;;;;;;;5052075;28;20028;-36
2023/06/02 08:18:50;;;;;;;12.20;3.88;;;;;;;;;;5053171;28;20021;-37
2023/06/02 08:21:16;;;;;;;6.93;3.28;;;;;;;;;;5051832;28;20033;-35
2023/06/02 08:23:42;;;;;;;7.90;3.80;;;;;;;;;;5053150;28;20032;-37
2023/06/02 08:26:09;;;;;;;8.73;3.85;;;;;;;;;;5053039;28;20021;-38
2023/06/02 08:28:35;;;;;;;6.53;3.55;;;;;;;;;;5053213;28;20044;-33
2023/06/02 08:31:01;;;;;;;6.78;3.30;;;;;;;;;;5053032;28;20025;-36
2023/06/02 08:33:27;;;;;;;7.28;3.50;;;;;;;;;;5052893;28;20013;-35
2023/06/02 08:35:54;;;;;;;7.85;4.00;;;;;;;;;;5052791;28;20025;-34
2023/06/02 08:38:20;;;;;;;8.05;3.63;;;;;;;;;;5051703;28;20025;-36
2023/06/02 08:40:46;;;;;;;10.20;3.78;;;;;;;;;;5052694;28;20179;-32
2023/06/02 08:43:15;;;;;;;7.22;3.45;;;;;;;;;;5052663;28;20496;-40
2023/06/02 08:45:42;;;;;;;7.20;3.83;;;;;;;;;;5052605;28;20029;-35
2023/06/02 08:48:12;;;;;;;9.48;4.13;;;;;;;;;;5052576;28;20100;-40
2023/06/02 08:50:39;;;;;;;10.23;3.83;;;;;;;;;;5052905;28;20073;-34
2023/06/02 08:53:07;;;;;;;9.02;3.53;;;;;;;;;;5052977;28;20381;-37
2023/06/02 08:55:39;;;;;;;7.65;3.08;;;;;;;;;;5052443;28;20021;-38
2023/06/02 08:58:05;;;;;;;8.02;3.97;;;;;;;;;;5052283;28;20362;-38
2023/06/02 09:00:31;;;;;;;6.57;3.20;;;;;;;;;;5052297;28;20025;-38
2023/06/02 09:02:57;;;;;;;14.32;4.97;;;;;;;;;;5052409;28;20390;-38
2023/06/02 09:05:24;;;;;;;39.30;7.25;;;;;;;;;;5052419;28;20094;-35
2023/06/02 09:08:06;;;;;;;56.45;12.82;;;;;;;;;;5051290;28;20409;-36
2023/06/02 09:10:33;;;;;;;44.75;9.27;;;;;;;;;;5050905;28;20086;-38
2023/06/02 09:12:59;;;;;;;81.15;12.77;;;;;;;;;;5052445;28;20071;-36
2023/06/02 09:15:25;;;;;;;58.05;9.82;;;;;;;;;;5050977;28;20501;-39
2023/06/02 09:17:51;;;;;;;33.38;8.13;;;;;;;;;;5052083;28;20029;-33
2023/06/02 09:20:17;;;;;;;51.85;7.93;;;;;;;;;;5051807;28;20032;-39
2023/06/02 09:22:57;;;;;;;32.72;6.85;;;;;;;;;;5052245;28;20025;-38
2023/06/02 09:25:33;;;;;;;79.97;12.68;;;;;;;;;;5052034;28;20147;-37
2023/06/02 09:28:00;;;;;;;47.92;9.77;;;;;;;;;;5051964;28;20040;-36
2023/06/02 09:30:26;;;;;;;35.05;7.78;;;;;;;;;;5051782;28;20056;-35
2023/06/02 09:32:56;;;;;;;30.42;6.40;;;;;;;;;;5052047;28;20025;-35
2023/06/02 09:35:40;;;;;;;27.48;5.90;;;;;;;;;;5051978;28;20040;-35
2023/06/02 09:38:09;;;;;;;19.33;5.00;;;;;;;;;;5051914;28;20358;-38
2023/06/02 09:40:35;;;;;;;22.75;4.85;;;;;;;;;;5051947;28;20175;-36
2023/06/02 09:43:03;;;;;;;18.25;4.03;;;;;;;;;;5051911;28;20032;-36
2023/06/02 09:45:29;;;;;;;11.38;4.10;;;;;;;;;;5052088;28;20021;-38
2023/06/02 09:47:55;;;;;;;9.90;3.67;;;;;;;;;;5052034;28;20032;-36
2023/06/02 09:50:50;;;;;;;12.13;3.60;;;;;;;;;;5050522;28;20454;-36
2023/06/02 09:53:18;;;;;;;12.70;3.50;;;;;;;;;;5047222;28;20033;-36
2023/06/02 09:55:45;;;;;;;14.98;3.80;;;;;;;;;;5052016;28;20014;-40
2023/06/02 09:58:11;;;;;;;8.35;3.25;;;;;;;;;;5051921;28;20663;-35
2023/06/02 10:00:38;;;;;;;11.13;3.67;;;;;;;;;;5051849;28;20029;-34
2023/06/02 10:03:04;;;;;;;12.27;3.00;;;;;;;;;;5051906;28;20382;-34
2023/06/02 10:05:31;;;;;;;10.50;3.25;;;;;;;;;;5052010;28;20033;-35
2023/06/02 10:07:57;;;;;;;5.93;2.80;;;;;;;;;;5052635;28;20105;-37
2023/06/02 10:10:26;;;;;;;8.45;3.00;;;;;;;;;;5055362;28;20107;-36
2023/06/02 10:13:12;;;;;;;8.48;3.00;;;;;;;;;;5055511;28;20051;-37
2023/06/02 10:15:59;;;;;;;8.07;2.90;;;;;;;;;;5044518;28;20470;-33
2023/06/02 10:18:37;;;;;;;8.70;2.80;;;;;;;;;;5055432;28;20021;-31
2023/06/02 10:21:15;;;;;;;5.43;2.83;;;;;;;;;;5053827;28;20100;-32
2023/06/02 10:24:00;;;;;;;7.05;2.78;;;;;;;;;;5054901;28;20036;-30
2023/06/02 10:26:44;;;;;;;7.28;2.70;;;;;;;;;;5055318;28;20035;-31
2023/06/02 10:29:12;;;;;;;3.85;2.35;;;;;;;;;;5054978;28;20087;-29
2023/06/02 10:31:38;;;;;;;3.70;2.17;;;;;;;;;;5054736;28;20374;-31
2023/06/02 10:34:04;;;;;;;5.55;2.65;;;;;;;;;;5054807;28;20025;-32
2023/06/02 10:36:49;;;;;;;5.10;2.35;;;;;;;;;;5054538;28;20021;-31
2023/06/02 10:39:41;;;;;;;5.47;2.45;;;;;;;;;;5054587;28;20065;-32
2023/06/02 10:42:11;;;;;;;6.53;2.20;;;;;;;;;;5054642;28;20025;-38
2023/06/02 10:44:37;;;;;;;5.50;2.55;;;;;;;;;;5054658;28;20041;-41
2023/06/02 10:47:18;;;;;;;5.45;2.63;;;;;;;;;;5054528;28;20389;-41
2023/06/02 10:49:53;;;;;;;4.80;2.50;;;;;;;;;;5052716;28;20032;-40
2023/06/02 10:52:20;;;;;;;3.80;2.10;;;;;;;;;;5054178;28;20048;-41
2023/06/02 10:55:06;;;;;;;4.75;2.53;;;;;;;;;;5053662;28;20025;-39
2023/06/02 10:57:51;;;;;;;6.43;2.53;;;;;;;;;;5053575;28;20079;-38
2023/06/02 11:00:44;;;;;;;3.33;1.98;;;;;;;;;;5053625;28;20033;-37
2023/06/02 11:03:17;;;;;;;4.78;2.35;;;;;;;;;;5053430;28;20070;-41
2023/06/02 11:05:44;;;;;;;8.13;2.60;;;;;;;;;;5054294;28;20132;-39
2023/06/02 11:08:17;;;;;;;5.03;2.20;;;;;;;;;;5054443;28;20382;-38
2023/06/02 11:10:46;;;;;;;4.13;2.08;;;;;;;;;;5053858;28;20044;-41
2023/06/02 11:13:13;;;;;;;5.78;2.20;;;;;;;;;;5053761;28;20032;-39
2023/06/02 11:15:41;;;;;;;3.17;1.83;;;;;;;;;;5053634;28;20028;-39
2023/06/02 11:18:23;;;;;;;3.80;1.90;;;;;;;;;;5053733;28;20025;-39
2023/06/02 11:20:52;;;;;;;5.05;2.28;;;;;;;;;;5053667;28;20498;-37
2023/06/02 11:23:19;;;;;;;3.83;2.10;;;;;;;;;;5053811;28;20021;-40
2023/06/02 11:25:45;;;;;;;4.50;2.08;;;;;;;;;;5053610;28;20028;-40
2023/06/02 11:28:20;;;;;;;5.78;2.35;;;;;;;;;;5053524;28;20428;-39
2023/06/02 11:30:46;;;;;;;3.47;1.98;;;;;;;;;;5053412;28;20028;-39
2023/06/02 11:33:12;;;;;;;4.80;3.03;;;;;;;;;;5053467;28;20546;-40
2023/06/02 11:35:40;;;;;;;4.18;2.17;;;;;;;;;;5053510;28;20031;-37
2023/06/02 11:38:11;;;;;;;9.50;2.67;;;;;;;;;;5053438;28;20021;-39
2023/06/02 11:40:37;;;;;;;4.63;2.20;;;;;;;;;;5053111;28;20129;-39
2023/06/02 11:43:03;;;;;;;5.75;1.98;;;;;;;;;;5053304;28;20066;-40
2023/06/02 11:45:30;;;;;;;4.20;2.45;;;;;;;;;;5053284;28;20128;-39
2023/06/02 11:48:05;;;;;;;5.03;2.00;;;;;;;;;;5053178;28;20033;-38
2023/06/02 11:50:31;;;;;;;6.97;2.00;;;;;;;;;;5053311;28;20048;-37
2023/06/02 11:52:57;;;;;;;3.15;2.08;;;;;;;;;;5053129;28;20045;-43
2023/06/02 11:55:31;;;;;;;6.85;2.13;;;;;;;;;;5052960;28;20017;-41
2023/06/02 11:58:16;;;;;;;5.97;1.85;;;;;;;;;;5053142;28;20542;-33
2023/06/02 12:00:42;;;;;;;;;;;;;;;;;;5051935;28;20783;-47
2023/06/02 12:23:56;;;;;;;8.23;2.70;;;;;;;;;;5113278;27;20349;-77
2023/06/02 12:26:24;;;;;;;8.20;2.83;;;;;;;;;;5113140;28;20038;-77
2023/06/02 12:28:50;;;;;;;13.30;3.17;;;;;;;;;;5097086;27;20068;-77
2023/06/02 12:31:17;;;;;;;8.13;2.67;;;;;;;;;;5016884;28;232558;-77
2023/06/02 12:35:15;;;;;;;4.93;2.50;;;;;;;22.17;53.52;102145.66;5091402;27;20127;-78
2023/06/02 12:37:42;;;;;;;3.50;2.20;;;;;;;22.25;52.73;102160.25;5049747;28;517154;-76
2023/06/02 12:40:09;;;;;;;4.07;2.20;;;;;;;22.27;54.37;102149.34;5055965;28;20095;-76
2023/06/02 13:39:52;;;;;;;;;;;;;;;18.46;34.71;102185.66;5110395;27;20326;-64
2023/06/02 13:42:17;;;;;;;;;;;;;;;18.63;34.77;102188.19;5063058;28;19916;-64
2023/06/02 13:44:42;;;;;;;;;;;;;;;18.59;34.66;102186.66;5039848;28;20290;-65
2023/06/02 13:47:08;;;;;;;;;;;;;;;21.29;42.44;102182.81;5050611;28;19917;-64
2023/06/02 13:49:33;;;;;;;10.97;2.53;;;;;;;20.27;37.21;102181.09;5081011;28;20495;-64
2023/06/02 13:51:58;;;;;;;7.07;2.92;;;;;;;19.98;37.39;102192.00;5040236;28;20163;-66
2023/06/02 13:54:24;;;;;;;3.28;1.52;;;;;;;19.85;32.68;102181.22;5045175;28;20060;-70
2023/06/02 13:56:49;;;;;;;8.15;1.95;;;;;;;19.98;32.77;102186.63;5042143;28;20071;-65
2023/06/02 13:59:16;;;;;;;3.55;1.83;;;;;;;19.60;32.23;102188.25;5011799;28;20106;-64
2023/06/02 14:01:41;;;;;;;4.18;1.77;;;;;;;19.84;31.47;102184.00;5078305;28;20477;-67
2023/06/02 14:04:08;;;;;;;4.70;1.63;;;;;;;19.93;31.36;102189.66;5086279;28;20020;-64
2023/06/02 14:06:37;;;;;;;4.82;1.85;;;;;;;19.84;31.11;102197.44;5051663;28;20408;-65
2023/06/02 14:09:04;;;;;;;5.95;1.70;;;;;;;19.77;31.10;102187.09;5063378;28;20487;-65
2023/06/02 14:11:29;;;;;;;3.83;1.60;;;;;;;19.79;31.39;102212.03;5061212;28;20536;-66
2023/06/02 14:13:55;;;;;;;2.17;1.75;;;;;;;19.79;30.53;102193.22;5057521;28;20118;-64
2023/06/02 14:16:21;;;;;;;4.57;1.70;;;;;;;19.65;29.68;102198.69;5032739;28;20567;-66
2023/06/02 14:18:46;;;;;;;2.05;1.40;;;;;;;19.66;29.63;102190.50;5023758;28;20033;-66
2023/06/02 14:21:12;;;;;;;4.57;1.70;;;;;;;19.44;29.49;102183.06;5054049;28;20021;-64
2023/06/02 14:23:37;;;;;;;5.05;1.65;;;;;;;19.33;30.60;102190.97;5040020;28;20377;-64
2023/06/02 14:26:02;;;;;;;3.78;2.42;;;;;;;19.63;29.66;102184.50;5061024;28;20053;-65
2023/06/02 14:28:28;;;;;;;2.95;1.60;;;;;;;19.72;29.95;102181.19;5045375;28;20024;-64
2023/06/02 14:30:53;;;;;;;2.90;1.58;;;;;;;20.27;27.90;102174.84;5031793;28;20043;-65
2023/06/02 14:33:18;;;;;;;4.55;1.65;;;;;;;19.94;29.11;102186.00;5040800;28;20020;-68
2023/06/02 14:35:44;;;;;;;2.85;1.85;;;;;;;19.67;29.67;102186.84;5067789;28;20029;-66
2023/06/02 14:38:09;;;;;;;7.25;1.90;;;;;;;19.24;28.62;102189.72;5036234;28;20052;-65
2023/06/02 14:40:36;;;;;;;6.18;1.75;;;;;;;19.72;29.02;102180.34;5031134;28;20025;-66
2023/06/02 14:43:01;;;;;;;4.35;1.80;;;;;;;19.45;27.38;102184.78;5031322;28;20422;-63
2023/06/02 14:45:27;;;;;;;4.35;2.00;;;;;;;19.40;28.41;102186.03;5046981;28;20059;-65
2023/06/02 14:47:52;;;;;;;6.07;1.73;;;;;;;19.46;28.00;102194.53;5013945;28;20049;-64
2023/06/02 14:50:18;;;;;;;8.52;1.65;;;;;;;19.23;27.76;102196.06;5040402;28;20040;-65
2023/06/02 14:52:45;;;;;;;4.68;1.90;;;;;;;19.23;27.90;102188.84;5017277;28;20462;-66
2023/06/02 14:55:10;;;;;;;5.07;1.70;;;;;;;19.30;27.81;102196.50;5034904;28;20382;-64
2023/06/02 14:57:36;;;;;;;6.40;1.63;;;;;;;19.11;28.72;102188.81;5017343;28;20044;-65
2023/06/02 15:00:01;;;;;;;2.78;1.85;;;;;;;19.25;27.53;102194.13;5017625;28;20026;-68
2023/06/02 15:02:26;;;;;;;5.03;1.48;;;;;;;19.27;28.01;102197.56;5017118;28;20080;-66
2023/06/02 15:04:52;;;;;;;3.75;1.50;;;;;;;19.36;28.14;102191.59;5034609;28;20029;-66
2023/06/02 15:07:20;;;;;;;3.97;1.83;;;;;;;19.05;28.20;102198.97;5017106;28;20477;-66
2023/06/02 15:09:47;;;;;;;2.80;1.42;;;;;;;19.03;27.13;102194.66;5000864;28;20037;-65
2023/06/02 15:12:12;;;;;;;3.72;1.60;;;;;;;19.36;27.36;102201.50;5017107;28;20114;-65
2023/06/02 15:14:38;;;;;;;6.15;1.50;;;;;;;19.29;27.37;102194.78;5016898;28;20466;-65
2023/06/02 15:17:03;;;;;;;5.13;2.03;;;;;;;19.52;26.22;102194.13;5016842;28;20026;-66
2023/06/02 15:19:29;;;;;;;3.65;1.58;;;;;;;19.39;26.52;102195.91;5017084;28;20363;-65
2023/06/02 15:21:54;;;;;;;3.40;1.60;;;;;;;19.15;25.84;102195.69;5017459;28;20101;-64
2023/06/02 15:24:19;;;;;;;4.03;1.40;;;;;;;18.98;26.70;102194.97;5000622;28;20378;-65